sensor_id;sensor_type;location;lat;lon;timestamp;temperature;humidity
14737;DHT22;7459;53.590;10.062;2023-12-20T00:01:22;6.60;99.90
14737;DHT22;7459;53.590;10.062;2023-12-20T00:03:48;6.60;99.90
14737;DHT22;7459;53.590;10.062;2023-12-20T00:06:13;6.50;99.90
14737;DHT22;7459;53.590;10.062;2023-12-20T00:08:39;6.50;99.90
14737;DHT22;7459;53.590;10.062;2023-12-20T00:11:05;6.40;99.90
14737;DHT22;7459;53.590;10.062;2023-12-20T00:13:30;6.50;99.90
14737;DHT22;7459;53.590;10.062;2023-12-20T00:15:56;6.50;99.90
14737;DHT22;7459;53.590;10.062;2023-12-20T00:18:22;6.50;99.90
14737;DHT22;7459;53.590;10.062;2023-12-20T00:20:48;6.50;99.90
14737;DHT22;7459;53.590;10.062;2023-12-20T00:23:14;6.50;99.90
14737;DHT22;7459;53.590;10.062;2023-12-20T00:25:39;6.50;99.90
14737;DHT22;7459;53.590;10.062;2023-12-20T00:28:06;6.60;99.90
14737;DHT22;7459;53.590;10.062;2023-12-20T00:30:32;6.50;99.90
14737;DHT22;7459;53.590;10.062;2023-12-20T00:32:57;6.50;99.90
14737;DHT22;7459;53.590;10.062;2023-12-20T00:35:23;6.50;99.90
14737;DHT22;7459;53.590;10.062;2023-12-20T00:37:49;6.50;99.90
14737;DHT22;7459;53.590;10.062;2023-12-20T00:40:15;6.50;99.90
14737;DHT22;7459;53.590;10.062;2023-12-20T00:42:40;6.40;99.90
14737;DHT22;7459;53.590;10.062;2023-12-20T00:45:07;6.40;99.90
14737;DHT22;7459;53.590;10.062;2023-12-20T00:47:32;6.50;99.90
14737;DHT22;7459;53.590;10.062;2023-12-20T00:49:58;6.50;99.90
14737;DHT22;7459;53.590;10.062;2023-12-20T00:52:24;6.50;99.90
14737;DHT22;7459;53.590;10.062;2023-12-20T00:54:50;6.40;99.90
14737;DHT22;7459;53.590;10.062;2023-12-20T00:57:16;6.50;99.90
14737;DHT22;7459;53.590;10.062;2023-12-20T00:59:42;6.40;99.90
14737;DHT22;7459;53.590;10.062;2023-12-20T01:02:07;6.50;99.90
14737;DHT22;7459;53.590;10.062;2023-12-20T01:04:34;6.50;99.90
14737;DHT22;7459;53.590;10.062;2023-12-20T01:07:00;6.40;99.90
14737;DHT22;7459;53.590;10.062;2023-12-20T01:09:25;6.50;99.90
14737;DHT22;7459;53.590;10.062;2023-12-20T01:11:54;6.40;99.90
14737;DHT22;7459;53.590;10.062;2023-12-20T01:14:20;6.40;99.90
14737;DHT22;7459;53.590;10.062;2023-12-20T01:16:45;6.40;99.90
14737;DHT22;7459;53.590;10.062;2023-12-20T01:19:12;6.30;99.90
14737;DHT22;7459;53.590;10.062;2023-12-20T01:21:39;6.30;99.90
14737;DHT22;7459;53.590;10.062;2023-12-20T01:24:05;6.40;99.90
14737;DHT22;7459;53.590;10.062;2023-12-20T01:26:30;6.40;99.90
14737;DHT22;7459;53.590;10.062;2023-12-20T01:28:56;6.40;99.90
14737;DHT22;7459;53.590;10.062;2023-12-20T01:31:22;6.30;99.90
14737;DHT22;7459;53.590;10.062;2023-12-20T01:33:47;6.30;99.90
14737;DHT22;7459;53.590;10.062;2023-12-20T01:36:13;6.30;99.90
14737;DHT22;7459;53.590;10.062;2023-12-20T01:38:39;6.30;99.90
14737;DHT22;7459;53.590;10.062;2023-12-20T01:41:04;6.20;99.90
14737;DHT22;7459;53.590;10.062;2023-12-20T01:43:30;6.20;99.90
14737;DHT22;7459;53.590;10.062;2023-12-20T01:45:57;6.20;99.90
14737;DHT22;7459;53.590;10.062;2023-12-20T01:48:23;6.20;99.90
14737;DHT22;7459;53.590;10.062;2023-12-20T01:50:50;6.10;99.90
14737;DHT22;7459;53.590;10.062;2023-12-20T01:53:17;6.10;99.90
14737;DHT22;7459;53.590;10.062;2023-12-20T01:55:45;6.10;99.90
14737;DHT22;7459;53.590;10.062;2023-12-20T01:58:11;6.10;99.90
14737;DHT22;7459;53.590;10.062;2023-12-20T02:00:38;6.10;99.90
14737;DHT22;7459;53.590;10.062;2023-12-20T02:03:04;6.20;99.90
14737;DHT22;7459;53.590;10.062;2023-12-20T02:05:30;6.20;99.90
14737;DHT22;7459;53.590;10.062;2023-12-20T02:07:56;6.20;99.90
14737;DHT22;7459;53.590;10.062;2023-12-20T02:10:23;6.20;99.90
14737;DHT22;7459;53.590;10.062;2023-12-20T02:12:49;6.20;99.90
14737;DHT22;7459;53.590;10.062;2023-12-20T02:15:14;6.20;99.90
14737;DHT22;7459;53.590;10.062;2023-12-20T02:17:40;6.20;99.90
14737;DHT22;7459;53.590;10.062;2023-12-20T02:20:06;6.20;99.90
14737;DHT22;7459;53.590;10.062;2023-12-20T02:22:32;6.10;99.90
14737;DHT22;7459;53.590;10.062;2023-12-20T02:24:58;6.20;99.90
14737;DHT22;7459;53.590;10.062;2023-12-20T02:27:24;6.10;99.90
14737;DHT22;7459;53.590;10.062;2023-12-20T02:29:50;6.20;99.90
14737;DHT22;7459;53.590;10.062;2023-12-20T02:32:20;6.20;99.90
14737;DHT22;7459;53.590;10.062;2023-12-20T02:34:49;6.10;99.90
14737;DHT22;7459;53.590;10.062;2023-12-20T02:37:15;6.10;99.90
14737;DHT22;7459;53.590;10.062;2023-12-20T02:39:41;6.10;99.90
14737;DHT22;7459;53.590;10.062;2023-12-20T02:42:07;6.10;99.90
14737;DHT22;7459;53.590;10.062;2023-12-20T02:44:32;6.10;99.90
14737;DHT22;7459;53.590;10.062;2023-12-20T02:46:58;6.00;99.90
14737;DHT22;7459;53.590;10.062;2023-12-20T02:49:24;6.20;99.90
14737;DHT22;7459;53.590;10.062;2023-12-20T02:51:49;6.10;99.90
14737;DHT22;7459;53.590;10.062;2023-12-20T02:54:15;6.10;99.90
14737;DHT22;7459;53.590;10.062;2023-12-20T02:56:41;6.10;99.90
14737;DHT22;7459;53.590;10.062;2023-12-20T03:02:21;6.10;99.90
14737;DHT22;7459;53.590;10.062;2023-12-20T03:04:47;6.10;99.90
14737;DHT22;7459;53.590;10.062;2023-12-20T03:07:13;6.20;99.90
14737;DHT22;7459;53.590;10.062;2023-12-20T03:09:38;6.20;99.90
14737;DHT22;7459;53.590;10.062;2023-12-20T03:12:04;6.20;99.90
14737;DHT22;7459;53.590;10.062;2023-12-20T03:14:30;6.20;99.90
14737;DHT22;7459;53.590;10.062;2023-12-20T03:16:56;6.20;99.90
14737;DHT22;7459;53.590;10.062;2023-12-20T03:19:21;6.10;99.90
14737;DHT22;7459;53.590;10.062;2023-12-20T03:21:47;6.10;99.90
14737;DHT22;7459;53.590;10.062;2023-12-20T03:24:13;6.20;99.90
14737;DHT22;7459;53.590;10.062;2023-12-20T03:26:39;6.10;99.90
14737;DHT22;7459;53.590;10.062;2023-12-20T03:29:04;6.20;99.90
14737;DHT22;7459;53.590;10.062;2023-12-20T03:31:30;6.10;99.90
14737;DHT22;7459;53.590;10.062;2023-12-20T03:33:56;6.00;99.90
14737;DHT22;7459;53.590;10.062;2023-12-20T03:36:21;6.10;99.90
14737;DHT22;7459;53.590;10.062;2023-12-20T03:38:47;6.10;99.90
14737;DHT22;7459;53.590;10.062;2023-12-20T03:41:13;6.10;99.90
14737;DHT22;7459;53.590;10.062;2023-12-20T03:43:39;6.00;99.90
14737;DHT22;7459;53.590;10.062;2023-12-20T03:46:04;6.10;99.90
14737;DHT22;7459;53.590;10.062;2023-12-20T03:48:31;6.00;99.90
14737;DHT22;7459;53.590;10.062;2023-12-20T03:50:57;6.10;99.90
14737;DHT22;7459;53.590;10.062;2023-12-20T03:53:22;6.10;99.90
14737;DHT22;7459;53.590;10.062;2023-12-20T03:55:48;6.10;99.90
14737;DHT22;7459;53.590;10.062;2023-12-20T03:58:14;6.10;99.90
14737;DHT22;7459;53.590;10.062;2023-12-20T04:00:39;6.10;99.90
14737;DHT22;7459;53.590;10.062;2023-12-20T04:03:05;6.10;99.90
14737;DHT22;7459;53.590;10.062;2023-12-20T04:05:31;6.10;99.90
14737;DHT22;7459;53.590;10.062;2023-12-20T04:07:57;6.00;99.90
14737;DHT22;7459;53.590;10.062;2023-12-20T04:10:23;6.10;99.90
14737;DHT22;7459;53.590;10.062;2023-12-20T04:12:48;6.10;99.90
14737;DHT22;7459;53.590;10.062;2023-12-20T04:15:14;6.00;99.90
14737;DHT22;7459;53.590;10.062;2023-12-20T04:17:40;6.00;99.90
14737;DHT22;7459;53.590;10.062;2023-12-20T04:20:06;6.10;99.90
14737;DHT22;7459;53.590;10.062;2023-12-20T04:22:32;6.00;99.90
14737;DHT22;7459;53.590;10.062;2023-12-20T04:24:58;6.00;99.90
14737;DHT22;7459;53.590;10.062;2023-12-20T04:27:23;6.00;99.90
14737;DHT22;7459;53.590;10.062;2023-12-20T04:29:49;6.00;99.90
14737;DHT22;7459;53.590;10.062;2023-12-20T04:32:15;6.00;99.90
14737;DHT22;7459;53.590;10.062;2023-12-20T04:34:40;6.10;99.90
14737;DHT22;7459;53.590;10.062;2023-12-20T04:37:06;6.10;99.90
14737;DHT22;7459;53.590;10.062;2023-12-20T04:39:32;6.10;99.90
14737;DHT22;7459;53.590;10.062;2023-12-20T04:41:58;6.10;99.90
14737;DHT22;7459;53.590;10.062;2023-12-20T04:44:24;6.10;99.90
14737;DHT22;7459;53.590;10.062;2023-12-20T04:46:50;6.10;99.90
14737;DHT22;7459;53.590;10.062;2023-12-20T04:49:15;6.10;99.90
14737;DHT22;7459;53.590;10.062;2023-12-20T04:51:41;6.10;99.90
14737;DHT22;7459;53.590;10.062;2023-12-20T04:54:06;6.10;99.90
14737;DHT22;7459;53.590;10.062;2023-12-20T04:56:32;6.10;99.90
14737;DHT22;7459;53.590;10.062;2023-12-20T04:58:58;6.10;99.90
14737;DHT22;7459;53.590;10.062;2023-12-20T05:01:24;6.10;99.90
14737;DHT22;7459;53.590;10.062;2023-12-20T05:03:49;6.10;99.90
14737;DHT22;7459;53.590;10.062;2023-12-20T05:06:15;6.10;99.90
14737;DHT22;7459;53.590;10.062;2023-12-20T05:08:41;6.20;99.90
14737;DHT22;7459;53.590;10.062;2023-12-20T05:11:06;6.20;99.90
14737;DHT22;7459;53.590;10.062;2023-12-20T05:13:32;6.20;99.90
14737;DHT22;7459;53.590;10.062;2023-12-20T05:15:58;6.20;99.90
14737;DHT22;7459;53.590;10.062;2023-12-20T05:18:23;6.20;99.90
14737;DHT22;7459;53.590;10.062;2023-12-20T05:20:50;6.10;99.90
14737;DHT22;7459;53.590;10.062;2023-12-20T05:23:17;6.10;99.90
14737;DHT22;7459;53.590;10.062;2023-12-20T05:25:43;6.20;99.90
14737;DHT22;7459;53.590;10.062;2023-12-20T05:28:08;6.20;99.90
14737;DHT22;7459;53.590;10.062;2023-12-20T05:30:34;6.30;99.90
14737;DHT22;7459;53.590;10.062;2023-12-20T05:33:00;6.30;99.90
14737;DHT22;7459;53.590;10.062;2023-12-20T05:35:26;6.30;99.90
14737;DHT22;7459;53.590;10.062;2023-12-20T05:37:51;6.20;99.90
14737;DHT22;7459;53.590;10.062;2023-12-20T05:40:20;6.30;99.90
14737;DHT22;7459;53.590;10.062;2023-12-20T05:42:46;6.30;99.90
14737;DHT22;7459;53.590;10.062;2023-12-20T05:45:12;6.30;99.90
14737;DHT22;7459;53.590;10.062;2023-12-20T05:47:38;6.30;99.90
14737;DHT22;7459;53.590;10.062;2023-12-20T05:50:04;6.20;99.90
14737;DHT22;7459;53.590;10.062;2023-12-20T05:52:30;6.20;99.90
14737;DHT22;7459;53.590;10.062;2023-12-20T05:54:55;6.30;99.90
14737;DHT22;7459;53.590;10.062;2023-12-20T05:57:23;6.20;99.90
14737;DHT22;7459;53.590;10.062;2023-12-20T05:59:49;6.20;99.90
14737;DHT22;7459;53.590;10.062;2023-12-20T06:02:14;6.20;99.90
14737;DHT22;7459;53.590;10.062;2023-12-20T06:04:42;6.20;99.90
14737;DHT22;7459;53.590;10.062;2023-12-20T06:07:11;6.30;99.90
14737;DHT22;7459;53.590;10.062;2023-12-20T06:09:37;6.30;99.90
14737;DHT22;7459;53.590;10.062;2023-12-20T06:12:02;6.30;99.90
14737;DHT22;7459;53.590;10.062;2023-12-20T06:14:28;6.20;99.90
14737;DHT22;7459;53.590;10.062;2023-12-20T06:16:56;6.20;99.90
14737;DHT22;7459;53.590;10.062;2023-12-20T06:19:22;6.30;99.90
14737;DHT22;7459;53.590;10.062;2023-12-20T06:21:48;6.30;99.90
14737;DHT22;7459;53.590;10.062;2023-12-20T06:24:14;6.30;99.90
14737;DHT22;7459;53.590;10.062;2023-12-20T06:26:39;6.40;99.90
14737;DHT22;7459;53.590;10.062;2023-12-20T06:29:05;6.30;99.90
14737;DHT22;7459;53.590;10.062;2023-12-20T06:31:31;6.40;99.90
14737;DHT22;7459;53.590;10.062;2023-12-20T06:33:58;6.40;99.90
14737;DHT22;7459;53.590;10.062;2023-12-20T06:36:25;6.40;99.90
14737;DHT22;7459;53.590;10.062;2023-12-20T06:38:52;6.40;99.90
14737;DHT22;7459;53.590;10.062;2023-12-20T06:41:18;6.40;99.90
14737;DHT22;7459;53.590;10.062;2023-12-20T06:43:44;6.40;99.90
14737;DHT22;7459;53.590;10.062;2023-12-20T06:46:10;6.40;99.90
14737;DHT22;7459;53.590;10.062;2023-12-20T06:48:36;6.40;99.90
14737;DHT22;7459;53.590;10.062;2023-12-20T06:51:01;6.40;99.90
14737;DHT22;7459;53.590;10.062;2023-12-20T06:53:27;6.40;99.90
14737;DHT22;7459;53.590;10.062;2023-12-20T06:55:54;6.30;99.90
14737;DHT22;7459;53.590;10.062;2023-12-20T06:58:21;6.40;99.90
14737;DHT22;7459;53.590;10.062;2023-12-20T07:00:48;6.40;99.90
14737;DHT22;7459;53.590;10.062;2023-12-20T07:03:13;6.30;99.90
14737;DHT22;7459;53.590;10.062;2023-12-20T07:05:39;6.40;99.90
14737;DHT22;7459;53.590;10.062;2023-12-20T07:08:06;6.40;99.90
14737;DHT22;7459;53.590;10.062;2023-12-20T07:10:32;6.40;99.90
14737;DHT22;7459;53.590;10.062;2023-12-20T07:12:58;6.30;99.90
14737;DHT22;7459;53.590;10.062;2023-12-20T07:15:24;6.40;99.90
14737;DHT22;7459;53.590;10.062;2023-12-20T07:17:49;6.40;99.90
14737;DHT22;7459;53.590;10.062;2023-12-20T07:20:15;6.40;99.90
14737;DHT22;7459;53.590;10.062;2023-12-20T07:22:41;6.40;99.90
14737;DHT22;7459;53.590;10.062;2023-12-20T07:25:07;6.40;99.90
14737;DHT22;7459;53.590;10.062;2023-12-20T07:27:33;6.40;99.90
14737;DHT22;7459;53.590;10.062;2023-12-20T07:29:59;6.50;99.90
14737;DHT22;7459;53.590;10.062;2023-12-20T07:32:24;6.50;99.90
14737;DHT22;7459;53.590;10.062;2023-12-20T07:34:50;6.50;99.90
14737;DHT22;7459;53.590;10.062;2023-12-20T07:37:16;6.50;99.90
14737;DHT22;7459;53.590;10.062;2023-12-20T07:39:42;6.50;99.90
14737;DHT22;7459;53.590;10.062;2023-12-20T07:42:08;6.50;99.90
14737;DHT22;7459;53.590;10.062;2023-12-20T07:44:34;6.50;99.90
14737;DHT22;7459;53.590;10.062;2023-12-20T07:47:01;6.40;99.90
14737;DHT22;7459;53.590;10.062;2023-12-20T07:49:27;6.40;99.90
14737;DHT22;7459;53.590;10.062;2023-12-20T07:51:53;6.50;99.90
14737;DHT22;7459;53.590;10.062;2023-12-20T07:54:19;6.50;99.90
14737;DHT22;7459;53.590;10.062;2023-12-20T07:56:46;6.40;99.90
14737;DHT22;7459;53.590;10.062;2023-12-20T07:59:12;6.40;99.90
14737;DHT22;7459;53.590;10.062;2023-12-20T08:01:37;6.40;99.90
14737;DHT22;7459;53.590;10.062;2023-12-20T08:04:03;6.40;99.90
14737;DHT22;7459;53.590;10.062;2023-12-20T08:06:29;6.50;99.90
14737;DHT22;7459;53.590;10.062;2023-12-20T08:08:55;6.50;99.90
14737;DHT22;7459;53.590;10.062;2023-12-20T08:11:20;6.50;99.90
14737;DHT22;7459;53.590;10.062;2023-12-20T08:13:46;6.50;99.90
14737;DHT22;7459;53.590;10.062;2023-12-20T08:16:12;6.50;99.90
14737;DHT22;7459;53.590;10.062;2023-12-20T08:18:39;6.60;99.90
14737;DHT22;7459;53.590;10.062;2023-12-20T08:21:05;6.60;99.90
14737;DHT22;7459;53.590;10.062;2023-12-20T08:23:34;6.60;99.90
14737;DHT22;7459;53.590;10.062;2023-12-20T08:26:07;6.60;99.90
14737;DHT22;7459;53.590;10.062;2023-12-20T08:28:33;6.50;99.90
14737;DHT22;7459;53.590;10.062;2023-12-20T08:30:59;6.50;99.90
14737;DHT22;7459;53.590;10.062;2023-12-20T08:33:25;6.50;99.90
14737;DHT22;7459;53.590;10.062;2023-12-20T08:35:51;6.60;99.90
14737;DHT22;7459;53.590;10.062;2023-12-20T08:38:17;6.60;99.90
14737;DHT22;7459;53.590;10.062;2023-12-20T08:40:43;6.70;99.90
14737;DHT22;7459;53.590;10.062;2023-12-20T08:43:09;6.70;99.90
14737;DHT22;7459;53.590;10.062;2023-12-20T08:45:35;6.60;99.90
14737;DHT22;7459;53.590;10.062;2023-12-20T08:48:00;6.60;99.90
14737;DHT22;7459;53.590;10.062;2023-12-20T08:50:26;6.60;99.90
14737;DHT22;7459;53.590;10.062;2023-12-20T08:52:52;6.70;99.90
14737;DHT22;7459;53.590;10.062;2023-12-20T08:55:19;6.70;99.90
14737;DHT22;7459;53.590;10.062;2023-12-20T08:57:44;6.70;99.90
14737;DHT22;7459;53.590;10.062;2023-12-20T09:00:11;6.70;99.90
14737;DHT22;7459;53.590;10.062;2023-12-20T09:02:37;6.70;99.90
14737;DHT22;7459;53.590;10.062;2023-12-20T09:05:03;6.70;99.90
14737;DHT22;7459;53.590;10.062;2023-12-20T09:07:29;6.80;99.90
14737;DHT22;7459;53.590;10.062;2023-12-20T09:09:58;6.80;99.90
14737;DHT22;7459;53.590;10.062;2023-12-20T09:12:24;6.90;99.90
14737;DHT22;7459;53.590;10.062;2023-12-20T09:14:51;6.90;99.90
14737;DHT22;7459;53.590;10.062;2023-12-20T09:17:17;6.80;99.90
14737;DHT22;7459;53.590;10.062;2023-12-20T09:19:44;6.80;99.90
14737;DHT22;7459;53.590;10.062;2023-12-20T09:22:10;6.80;99.90
14737;DHT22;7459;53.590;10.062;2023-12-20T09:24:36;6.80;99.90
14737;DHT22;7459;53.590;10.062;2023-12-20T09:27:02;6.60;99.90
14737;DHT22;7459;53.590;10.062;2023-12-20T09:29:28;6.50;99.90
14737;DHT22;7459;53.590;10.062;2023-12-20T09:31:54;6.40;99.90
14737;DHT22;7459;53.590;10.062;2023-12-20T09:34:20;6.50;99.90
14737;DHT22;7459;53.590;10.062;2023-12-20T09:36:47;6.40;99.90
14737;DHT22;7459;53.590;10.062;2023-12-20T09:39:17;6.30;99.90
14737;DHT22;7459;53.590;10.062;2023-12-20T09:42:03;6.30;99.90
14737;DHT22;7459;53.590;10.062;2023-12-20T09:44:30;6.30;99.90
14737;DHT22;7459;53.590;10.062;2023-12-20T09:46:57;6.20;99.90
14737;DHT22;7459;53.590;10.062;2023-12-20T09:49:23;6.20;99.90
14737;DHT22;7459;53.590;10.062;2023-12-20T09:51:51;6.20;99.90
14737;DHT22;7459;53.590;10.062;2023-12-20T09:54:18;6.10;99.90
14737;DHT22;7459;53.590;10.062;2023-12-20T09:56:47;6.10;99.90
14737;DHT22;7459;53.590;10.062;2023-12-20T09:59:13;6.00;99.90
14737;DHT22;7459;53.590;10.062;2023-12-20T10:01:42;6.00;99.90
14737;DHT22;7459;53.590;10.062;2023-12-20T10:04:10;5.90;99.90
14737;DHT22;7459;53.590;10.062;2023-12-20T10:06:44;5.90;99.90
14737;DHT22;7459;53.590;10.062;2023-12-20T10:09:11;5.90;99.90
14737;DHT22;7459;53.590;10.062;2023-12-20T10:11:38;5.90;99.90
14737;DHT22;7459;53.590;10.062;2023-12-20T10:14:05;5.80;99.90
14737;DHT22;7459;53.590;10.062;2023-12-20T10:16:32;5.80;99.90
14737;DHT22;7459;53.590;10.062;2023-12-20T10:18:59;5.80;99.90
14737;DHT22;7459;53.590;10.062;2023-12-20T10:21:25;5.70;99.90
14737;DHT22;7459;53.590;10.062;2023-12-20T10:23:53;5.70;99.90
14737;DHT22;7459;53.590;10.062;2023-12-20T10:26:23;5.70;99.90
14737;DHT22;7459;53.590;10.062;2023-12-20T10:28:56;5.70;99.90
14737;DHT22;7459;53.590;10.062;2023-12-20T10:31:29;5.80;99.90
14737;DHT22;7459;53.590;10.062;2023-12-20T10:33:57;5.80;99.90
14737;DHT22;7459;53.590;10.062;2023-12-20T10:36:28;5.70;99.90
14737;DHT22;7459;53.590;10.062;2023-12-20T10:38:56;5.80;99.90
14737;DHT22;7459;53.590;10.062;2023-12-20T10:41:32;5.90;99.90
14737;DHT22;7459;53.590;10.062;2023-12-20T10:44:03;5.90;99.90
14737;DHT22;7459;53.590;10.062;2023-12-20T10:46:30;5.90;99.90
14737;DHT22;7459;53.590;10.062;2023-12-20T10:48:58;5.90;99.90
14737;DHT22;7459;53.590;10.062;2023-12-20T10:51:24;5.90;99.90
14737;DHT22;7459;53.590;10.062;2023-12-20T10:53:52;5.80;99.90
14737;DHT22;7459;53.590;10.062;2023-12-20T10:56:19;5.80;99.90
14737;DHT22;7459;53.590;10.062;2023-12-20T10:58:47;5.70;99.90
14737;DHT22;7459;53.590;10.062;2023-12-20T11:01:14;5.80;99.90
14737;DHT22;7459;53.590;10.062;2023-12-20T11:03:52;5.80;99.90
14737;DHT22;7459;53.590;10.062;2023-12-20T11:06:43;5.80;99.90
14737;DHT22;7459;53.590;10.062;2023-12-20T11:12:02;5.90;99.90
14737;DHT22;7459;53.590;10.062;2023-12-20T11:14:47;5.80;99.90
14737;DHT22;7459;53.590;10.062;2023-12-20T11:17:14;5.80;99.90
14737;DHT22;7459;53.590;10.062;2023-12-20T11:22:29;5.70;99.90
14737;DHT22;7459;53.590;10.062;2023-12-20T11:25:05;5.70;99.90
14737;DHT22;7459;53.590;10.062;2023-12-20T11:27:34;5.60;99.90
14737;DHT22;7459;53.590;10.062;2023-12-20T11:30:03;5.60;99.90
14737;DHT22;7459;53.590;10.062;2023-12-20T11:32:36;5.60;99.90
14737;DHT22;7459;53.590;10.062;2023-12-20T11:37:38;5.40;99.90
14737;DHT22;7459;53.590;10.062;2023-12-20T11:40:13;5.40;99.90
14737;DHT22;7459;53.590;10.062;2023-12-20T11:42:44;5.50;99.90
14737;DHT22;7459;53.590;10.062;2023-12-20T11:45:19;5.60;99.90
14737;DHT22;7459;53.590;10.062;2023-12-20T11:47:50;5.70;99.90
14737;DHT22;7459;53.590;10.062;2023-12-20T11:50:20;5.60;99.90
14737;DHT22;7459;53.590;10.062;2023-12-20T11:52:48;5.60;99.90
14737;DHT22;7459;53.590;10.062;2023-12-20T11:55:15;5.60;99.90
14737;DHT22;7459;53.590;10.062;2023-12-20T11:57:42;5.70;99.90
14737;DHT22;7459;53.590;10.062;2023-12-20T12:00:09;5.80;99.90
14737;DHT22;7459;53.590;10.062;2023-12-20T12:02:35;5.80;99.90
14737;DHT22;7459;53.590;10.062;2023-12-20T12:05:01;5.80;99.90
14737;DHT22;7459;53.590;10.062;2023-12-20T12:07:27;5.80;99.90
14737;DHT22;7459;53.590;10.062;2023-12-20T12:09:53;5.90;99.90
14737;DHT22;7459;53.590;10.062;2023-12-20T12:12:19;5.90;99.90
14737;DHT22;7459;53.590;10.062;2023-12-20T12:14:46;5.90;99.90
14737;DHT22;7459;53.590;10.062;2023-12-20T12:17:15;6.00;99.90
14737;DHT22;7459;53.590;10.062;2023-12-20T12:19:42;6.00;99.90
14737;DHT22;7459;53.590;10.062;2023-12-20T12:22:13;6.10;99.90
14737;DHT22;7459;53.590;10.062;2023-12-20T12:24:41;6.10;99.90
14737;DHT22;7459;53.590;10.062;2023-12-20T12:27:11;6.10;99.90
14737;DHT22;7459;53.590;10.062;2023-12-20T12:29:37;6.20;99.90
14737;DHT22;7459;53.590;10.062;2023-12-20T12:32:08;6.20;99.90
14737;DHT22;7459;53.590;10.062;2023-12-20T12:34:35;6.20;99.90
14737;DHT22;7459;53.590;10.062;2023-12-20T12:37:01;6.30;99.90
14737;DHT22;7459;53.590;10.062;2023-12-20T12:39:29;6.30;99.90
14737;DHT22;7459;53.590;10.062;2023-12-20T12:41:55;6.30;99.90
14737;DHT22;7459;53.590;10.062;2023-12-20T12:44:22;6.40;99.90
14737;DHT22;7459;53.590;10.062;2023-12-20T12:46:50;6.40;99.90
14737;DHT22;7459;53.590;10.062;2023-12-20T12:49:16;6.50;99.90
14737;DHT22;7459;53.590;10.062;2023-12-20T12:51:43;6.50;99.90
14737;DHT22;7459;53.590;10.062;2023-12-20T12:54:09;6.50;99.90
14737;DHT22;7459;53.590;10.062;2023-12-20T12:56:36;6.50;99.90
14737;DHT22;7459;53.590;10.062;2023-12-20T12:59:02;6.50;99.90
14737;DHT22;7459;53.590;10.062;2023-12-20T13:01:28;6.50;99.90
14737;DHT22;7459;53.590;10.062;2023-12-20T13:03:53;6.50;99.90
14737;DHT22;7459;53.590;10.062;2023-12-20T13:06:20;6.40;99.90
14737;DHT22;7459;53.590;10.062;2023-12-20T13:08:45;6.50;99.90
14737;DHT22;7459;53.590;10.062;2023-12-20T13:11:11;6.50;99.90
14737;DHT22;7459;53.590;10.062;2023-12-20T13:13:37;6.50;99.90
14737;DHT22;7459;53.590;10.062;2023-12-20T13:16:03;6.50;99.90
14737;DHT22;7459;53.590;10.062;2023-12-20T13:18:29;6.50;99.90
14737;DHT22;7459;53.590;10.062;2023-12-20T13:20:55;6.50;99.90
14737;DHT22;7459;53.590;10.062;2023-12-20T13:23:20;6.50;99.90
14737;DHT22;7459;53.590;10.062;2023-12-20T13:25:46;6.50;99.90
14737;DHT22;7459;53.590;10.062;2023-12-20T13:28:12;6.50;99.90
14737;DHT22;7459;53.590;10.062;2023-12-20T13:30:38;6.60;99.90
14737;DHT22;7459;53.590;10.062;2023-12-20T13:33:05;6.50;99.90
14737;DHT22;7459;53.590;10.062;2023-12-20T13:35:31;6.50;99.90
14737;DHT22;7459;53.590;10.062;2023-12-20T13:38:00;6.60;99.90
14737;DHT22;7459;53.590;10.062;2023-12-20T13:40:26;6.50;99.90
14737;DHT22;7459;53.590;10.062;2023-12-20T13:42:52;6.50;99.90
14737;DHT22;7459;53.590;10.062;2023-12-20T13:45:18;6.50;99.90
14737;DHT22;7459;53.590;10.062;2023-12-20T13:47:43;6.50;99.90
14737;DHT22;7459;53.590;10.062;2023-12-20T13:50:09;6.50;99.90
14737;DHT22;7459;53.590;10.062;2023-12-20T13:52:35;6.40;99.90
14737;DHT22;7459;53.590;10.062;2023-12-20T13:55:01;6.40;99.90
14737;DHT22;7459;53.590;10.062;2023-12-20T13:57:27;6.40;99.90
14737;DHT22;7459;53.590;10.062;2023-12-20T13:59:55;6.40;99.90
14737;DHT22;7459;53.590;10.062;2023-12-20T14:02:22;6.40;99.90
14737;DHT22;7459;53.590;10.062;2023-12-20T14:04:48;6.40;99.90
14737;DHT22;7459;53.590;10.062;2023-12-20T14:07:13;6.40;99.90
14737;DHT22;7459;53.590;10.062;2023-12-20T14:09:40;6.40;99.90
14737;DHT22;7459;53.590;10.062;2023-12-20T14:12:11;6.40;99.90
14737;DHT22;7459;53.590;10.062;2023-12-20T14:14:37;6.40;99.90
14737;DHT22;7459;53.590;10.062;2023-12-20T14:17:03;6.30;99.90
14737;DHT22;7459;53.590;10.062;2023-12-20T14:19:29;6.40;99.90
14737;DHT22;7459;53.590;10.062;2023-12-20T14:21:55;6.40;99.90
14737;DHT22;7459;53.590;10.062;2023-12-20T14:24:20;6.30;99.90
14737;DHT22;7459;53.590;10.062;2023-12-20T14:26:46;6.30;99.90
14737;DHT22;7459;53.590;10.062;2023-12-20T14:29:12;6.30;99.90
14737;DHT22;7459;53.590;10.062;2023-12-20T14:31:37;6.40;99.90
14737;DHT22;7459;53.590;10.062;2023-12-20T14:34:04;6.40;99.90
14737;DHT22;7459;53.590;10.062;2023-12-20T14:36:30;6.30;99.90
14737;DHT22;7459;53.590;10.062;2023-12-20T14:38:56;6.40;99.90
14737;DHT22;7459;53.590;10.062;2023-12-20T14:41:22;6.40;99.90
14737;DHT22;7459;53.590;10.062;2023-12-20T14:43:50;6.40;99.90
14737;DHT22;7459;53.590;10.062;2023-12-20T14:46:17;6.40;99.90
14737;DHT22;7459;53.590;10.062;2023-12-20T14:48:43;6.30;99.90
14737;DHT22;7459;53.590;10.062;2023-12-20T14:51:08;6.30;99.90
14737;DHT22;7459;53.590;10.062;2023-12-20T14:53:34;6.30;99.90
14737;DHT22;7459;53.590;10.062;2023-12-20T14:56:03;6.40;99.90
14737;DHT22;7459;53.590;10.062;2023-12-20T14:58:30;6.40;99.90
14737;DHT22;7459;53.590;10.062;2023-12-20T15:00:56;6.40;99.90
14737;DHT22;7459;53.590;10.062;2023-12-20T15:03:22;6.40;99.90
14737;DHT22;7459;53.590;10.062;2023-12-20T15:05:48;6.30;99.90
14737;DHT22;7459;53.590;10.062;2023-12-20T15:08:14;6.30;99.90
14737;DHT22;7459;53.590;10.062;2023-12-20T15:10:40;6.30;99.90
14737;DHT22;7459;53.590;10.062;2023-12-20T15:13:06;6.30;99.90
14737;DHT22;7459;53.590;10.062;2023-12-20T15:15:31;6.30;99.90
14737;DHT22;7459;53.590;10.062;2023-12-20T15:18:00;6.30;99.90
14737;DHT22;7459;53.590;10.062;2023-12-20T15:20:26;6.30;99.90
14737;DHT22;7459;53.590;10.062;2023-12-20T15:22:52;6.30;99.90
14737;DHT22;7459;53.590;10.062;2023-12-20T15:25:19;6.30;99.90
14737;DHT22;7459;53.590;10.062;2023-12-20T15:27:50;6.30;99.90
14737;DHT22;7459;53.590;10.062;2023-12-20T15:30:20;6.30;99.90
14737;DHT22;7459;53.590;10.062;2023-12-20T15:32:45;6.30;99.90
14737;DHT22;7459;53.590;10.062;2023-12-20T15:35:11;6.30;99.90
14737;DHT22;7459;53.590;10.062;2023-12-20T15:37:40;6.20;99.90
14737;DHT22;7459;53.590;10.062;2023-12-20T15:40:09;6.20;99.90
14737;DHT22;7459;53.590;10.062;2023-12-20T15:42:36;6.20;99.90
14737;DHT22;7459;53.590;10.062;2023-12-20T15:45:03;6.20;99.90
14737;DHT22;7459;53.590;10.062;2023-12-20T15:47:30;6.20;99.90
14737;DHT22;7459;53.590;10.062;2023-12-20T15:49:55;6.20;99.90
14737;DHT22;7459;53.590;10.062;2023-12-20T15:52:21;6.20;99.90